sensor_id;sensor_type;location;lat;lon;timestamp;temperature;humidity
72919;SHT30;68407;55.694;26.994;2024-03-02T00:05:06;3.2;87.7
72919;SHT30;68407;55.694;26.994;2024-03-02T00:10:08;3.2;87.6
72919;SHT30;68407;55.694;26.994;2024-03-02T00:14:34;3.2;87.6
72919;SHT30;68407;55.694;26.994;2024-03-02T00:19:46;3.2;87.8
72919;SHT30;68407;55.694;26.994;2024-03-02T00:25:07;3.3;87.6
72919;SHT30;68407;55.694;26.994;2024-03-02T00:29:59;3.3;87.6
72919;SHT30;68407;55.694;26.994;2024-03-02T00:34:48;3.3;87.5
72919;SHT30;68407;55.694;26.994;2024-03-02T00:39:40;3.3;87.3
72919;SHT30;68407;55.694;26.994;2024-03-02T00:44:38;3.3;87.2
72919;SHT30;68407;55.694;26.994;2024-03-02T00:50:07;3.3;87.2
72919;SHT30;68407;55.694;26.994;2024-03-02T00:54:47;3.3;87.2
72919;SHT30;68407;55.694;26.994;2024-03-02T01:00:07;3.3;87.1
72919;SHT30;68407;55.694;26.994;2024-03-02T01:04:22;3.3;87.1
72919;SHT30;68407;55.694;26.994;2024-03-02T01:09:54;3.3;87
72919;SHT30;68407;55.694;26.994;2024-03-02T01:14:22;3.3;87
72919;SHT30;68407;55.694;26.994;2024-03-02T01:19:28;3.3;87
72919;SHT30;68407;55.694;26.994;2024-03-02T01:24:28;3.3;86.9
72919;SHT30;68407;55.694;26.994;2024-03-02T01:29:34;3.3;86.7
72919;SHT30;68407;55.694;26.994;2024-03-02T01:34:22;3.2;86.7
72919;SHT30;68407;55.694;26.994;2024-03-02T01:39:34;3.2;86.8
72919;SHT30;68407;55.694;26.994;2024-03-02T01:45:07;3.1;86.9
72919;SHT30;68407;55.694;26.994;2024-03-02T01:49:22;3.1;86.9
72919;SHT30;68407;55.694;26.994;2024-03-02T01:55:07;3;86.8
72919;SHT30;68407;55.694;26.994;2024-03-02T01:59:54;3;86.8
72919;SHT30;68407;55.694;26.994;2024-03-02T02:04:56;3;86.9
72919;SHT30;68407;55.694;26.994;2024-03-02T02:09:38;3;87
72919;SHT30;68407;55.694;26.994;2024-03-02T02:15:02;2.9;87
72919;SHT30;68407;55.694;26.994;2024-03-02T02:19:58;2.9;87.2
72919;SHT30;68407;55.694;26.994;2024-03-02T02:24:39;2.9;87.3
72919;SHT30;68407;55.694;26.994;2024-03-02T02:29:22;3;87.2
72919;SHT30;68407;55.694;26.994;2024-03-02T02:35:06;3;87.1
72919;SHT30;68407;55.694;26.994;2024-03-02T02:39:30;3;87.1
72919;SHT30;68407;55.694;26.994;2024-03-02T02:44:54;3;87.3
72919;SHT30;68407;55.694;26.994;2024-03-02T02:49:23;3;87.4
72919;SHT30;68407;55.694;26.994;2024-03-02T02:54:28;3.1;87.3
72919;SHT30;68407;55.694;26.994;2024-03-02T02:59:22;3.1;87.1
72919;SHT30;68407;55.694;26.994;2024-03-02T03:04:22;3.2;87.1
72919;SHT30;68407;55.694;26.994;2024-03-02T03:09:28;3.2;86.9
72919;SHT30;68407;55.694;26.994;2024-03-02T03:14:31;3.3;86.8
72919;SHT30;68407;55.694;26.994;2024-03-02T03:20:07;3.3;86.6
72919;SHT30;68407;55.694;26.994;2024-03-02T03:24:50;3.3;86.6
72919;SHT30;68407;55.694;26.994;2024-03-02T03:30:07;3.2;86.8
72919;SHT30;68407;55.694;26.994;2024-03-02T03:34:54;3.2;86.8
72919;SHT30;68407;55.694;26.994;2024-03-02T03:39:58;3.2;86.9
72919;SHT30;68407;55.694;26.994;2024-03-02T03:44:32;3.2;87.1
72919;SHT30;68407;55.694;26.994;2024-03-02T03:49:34;3.1;87.2
72919;SHT30;68407;55.694;26.994;2024-03-02T03:55:08;3.1;87.3
72919;SHT30;68407;55.694;26.994;2024-03-02T04:00:07;3.2;87.3
72919;SHT30;68407;55.694;26.994;2024-03-02T04:04:46;3.2;87.3
72919;SHT30;68407;55.694;26.994;2024-03-02T04:10:07;3.1;87.6
72919;SHT30;68407;55.694;26.994;2024-03-02T04:14:58;3.1;87.6
72919;SHT30;68407;55.694;26.994;2024-03-02T04:19:54;3.2;87.6
72919;SHT30;68407;55.694;26.994;2024-03-02T04:25:07;3.2;87.6
72919;SHT30;68407;55.694;26.994;2024-03-02T04:29:28;3.2;87.6
72919;SHT30;68407;55.694;26.994;2024-03-02T04:34:59;3.2;87.6
72919;SHT30;68407;55.694;26.994;2024-03-02T04:39:40;3.1;87.7
72919;SHT30;68407;55.694;26.994;2024-03-02T04:44:22;3.1;88
72919;SHT30;68407;55.694;26.994;2024-03-02T04:49:46;3;88.1
72919;SHT30;68407;55.694;26.994;2024-03-02T04:54:48;3;88.2
72919;SHT30;68407;55.694;26.994;2024-03-02T04:59:22;3.1;88.1
72919;SHT30;68407;55.694;26.994;2024-03-02T05:05:05;3.1;87.8
72919;SHT30;68407;55.694;26.994;2024-03-02T05:09:54;3.1;87.8
72919;SHT30;68407;55.694;26.994;2024-03-02T05:14:22;3.1;87.8
72919;SHT30;68407;55.694;26.994;2024-03-02T05:19:22;3.2;87.7
72919;SHT30;68407;55.694;26.994;2024-03-02T05:24:46;3.2;87.5
72919;SHT30;68407;55.694;26.994;2024-03-02T05:29:59;3.2;87.3
72919;SHT30;68407;55.694;26.994;2024-03-02T05:34:39;3.2;87.2
72919;SHT30;68407;55.694;26.994;2024-03-02T05:39:59;3.3;87.2
72919;SHT30;68407;55.694;26.994;2024-03-02T05:44:55;3.2;87.2
72919;SHT30;68407;55.694;26.994;2024-03-02T05:50:05;3.2;87.3
72919;SHT30;68407;55.694;26.994;2024-03-02T05:54:45;3.2;87.3
72919;SHT30;68407;55.694;26.994;2024-03-02T05:59:59;3.2;87.3
72919;SHT30;68407;55.694;26.994;2024-03-02T06:04:49;3.2;87.4
72919;SHT30;68407;55.694;26.994;2024-03-02T06:10:01;3.1;87.6
72919;SHT30;68407;55.694;26.994;2024-03-02T06:15:00;3.1;87.8
72919;SHT30;68407;55.694;26.994;2024-03-02T06:19:47;3.2;87.7
72919;SHT30;68407;55.694;26.994;2024-03-02T06:24:23;3.2;87.7
72919;SHT30;68407;55.694;26.994;2024-03-02T06:29:32;3.2;87.7
72919;SHT30;68407;55.694;26.994;2024-03-02T06:34:51;3.3;87.8
72919;SHT30;68407;55.694;26.994;2024-03-02T06:40:09;3.3;87.7
72919;SHT30;68407;55.694;26.994;2024-03-02T06:45:09;3.4;87.7
72919;SHT30;68407;55.694;26.994;2024-03-02T06:49:31;3.4;87.7
72919;SHT30;68407;55.694;26.994;2024-03-02T06:54:53;3.5;87.5
72919;SHT30;68407;55.694;26.994;2024-03-02T06:59:41;3.6;87.3
72919;SHT30;68407;55.694;26.994;2024-03-02T07:05:01;3.7;87.1
72919;SHT30;68407;55.694;26.994;2024-03-02T07:09:23;3.8;86.7
72919;SHT30;68407;55.694;26.994;2024-03-02T07:15:01;3.9;86.3
72919;SHT30;68407;55.694;26.994;2024-03-02T07:19:57;3.9;86.2
72919;SHT30;68407;55.694;26.994;2024-03-02T07:25:09;4.2;85.5
72919;SHT30;68407;55.694;26.994;2024-03-02T07:29:49;4.2;85.5
72919;SHT30;68407;55.694;26.994;2024-03-02T07:35:01;4.3;85.1
72919;SHT30;68407;55.694;26.994;2024-03-02T07:39:49;4.3;84.7
72919;SHT30;68407;55.694;26.994;2024-03-02T07:44:21;4.3;84.6
72919;SHT30;68407;55.694;26.994;2024-03-02T07:49:23;4.4;84.2
72919;SHT30;68407;55.694;26.994;2024-03-02T07:54:31;4.7;83.8
72919;SHT30;68407;55.694;26.994;2024-03-02T07:59:23;4.8;83.3
72919;SHT30;68407;55.694;26.994;2024-03-02T08:04:31;4.8;83.1
72919;SHT30;68407;55.694;26.994;2024-03-02T08:09:57;5;82.6
72919;SHT30;68407;55.694;26.994;2024-03-02T08:15:09;5.2;82.4
72919;SHT30;68407;55.694;26.994;2024-03-02T08:20:09;5.5;81.7
72919;SHT30;68407;55.694;26.994;2024-03-02T08:24:37;5.5;81.7
72919;SHT30;68407;55.694;26.994;2024-03-02T08:29:31;5.8;80.8
72919;SHT30;68407;55.694;26.994;2024-03-02T08:35:09;6.3;79.9
72919;SHT30;68407;55.694;26.994;2024-03-02T08:39:59;6.3;79.9
72919;SHT30;68407;55.694;26.994;2024-03-02T08:44:33;6.4;78.9
72919;SHT30;68407;55.694;26.994;2024-03-02T08:49:49;6.1;79
72919;SHT30;68407;55.694;26.994;2024-03-02T08:54:23;5.9;79.4
72919;SHT30;68407;55.694;26.994;2024-03-02T08:59:49;6;79.7
72919;SHT30;68407;55.694;26.994;2024-03-02T09:04:23;6;79.2
72919;SHT30;68407;55.694;26.994;2024-03-02T09:10:01;6.1;79.1
72919;SHT30;68407;55.694;26.994;2024-03-02T09:15:09;6.3;78.9
72919;SHT30;68407;55.694;26.994;2024-03-02T09:19:57;6.3;78.9
72919;SHT30;68407;55.694;26.994;2024-03-02T09:24:53;6.4;78.5
72919;SHT30;68407;55.694;26.994;2024-03-02T09:29:23;6.7;78.4
72919;SHT30;68407;55.694;26.994;2024-03-02T09:34:30;6.9;77.6
72919;SHT30;68407;55.694;26.994;2024-03-02T09:39:37;6.8;76.9
72919;SHT30;68407;55.694;26.994;2024-03-02T09:44:23;6.7;77.1
72919;SHT30;68407;55.694;26.994;2024-03-02T09:49:49;6.5;77.6
72919;SHT30;68407;55.694;26.994;2024-03-02T09:55:09;7;76.9
72919;SHT30;68407;55.694;26.994;2024-03-02T09:59:43;7;76.9
72919;SHT30;68407;55.694;26.994;2024-03-02T10:05:09;7.2;76.2
72919;SHT30;68407;55.694;26.994;2024-03-02T10:09:51;7.2;76.2
72919;SHT30;68407;55.694;26.994;2024-03-02T10:15:02;7.5;75.9
72919;SHT30;68407;55.694;26.994;2024-03-02T10:19:39;7.9;75.5
72919;SHT30;68407;55.694;26.994;2024-03-02T10:24:49;8;74.1
72919;SHT30;68407;55.694;26.994;2024-03-02T10:30:10;8.4;73.4
72919;SHT30;68407;55.694;26.994;2024-03-02T10:35:09;8.4;73.4
72919;SHT30;68407;55.694;26.994;2024-03-02T10:39:23;8.4;73.4
72919;SHT30;68407;55.694;26.994;2024-03-02T10:44:51;8.4;72.9
72919;SHT30;68407;55.694;26.994;2024-03-02T10:50:07;8.5;73
72919;SHT30;68407;55.694;26.994;2024-03-02T10:55:09;8.6;72.8
72919;SHT30;68407;55.694;26.994;2024-03-02T11:00:11;8.7;72.6
72919;SHT30;68407;55.694;26.994;2024-03-02T11:04:23;8.7;72.6
72919;SHT30;68407;55.694;26.994;2024-03-02T11:09:24;8.8;72.6
72919;SHT30;68407;55.694;26.994;2024-03-02T11:14:24;8.9;72.3
72919;SHT30;68407;55.694;26.994;2024-03-02T11:19:23;8.9;72.5
72919;SHT30;68407;55.694;26.994;2024-03-02T11:24:37;8.9;72.3
72919;SHT30;68407;55.694;26.994;2024-03-02T11:30:09;8.9;71.2
72919;SHT30;68407;55.694;26.994;2024-03-02T11:34:29;8.9;71.2
72919;SHT30;68407;55.694;26.994;2024-03-02T11:40:07;9;71.8
72919;SHT30;68407;55.694;26.994;2024-03-02T11:44:44;9;71.8
72919;SHT30;68407;55.694;26.994;2024-03-02T11:49:59;9;71.6
72919;SHT30;68407;55.694;26.994;2024-03-02T17:54:25;9;72.1
72919;SHT30;68407;55.694;26.994;2024-03-02T17:59:39;3.1;84.5
72919;SHT30;68407;55.694;26.994;2024-03-02T18:05:11;3.3;84
72919;SHT30;68407;55.694;26.994;2024-03-02T18:09:25;3.3;84
72919;SHT30;68407;55.694;26.994;2024-03-02T18:15:11;3.5;83.5
72919;SHT30;68407;55.694;26.994;2024-03-02T18:19:59;3.5;83.5
72919;SHT30;68407;55.694;26.994;2024-03-02T18:25:01;3.5;83.3
72919;SHT30;68407;55.694;26.994;2024-03-02T18:29:41;3.5;83.3
72919;SHT30;68407;55.694;26.994;2024-03-02T18:34:43;3.5;83.2
72919;SHT30;68407;55.694;26.994;2024-03-02T18:40:11;3.5;83.6
72919;SHT30;68407;55.694;26.994;2024-03-02T18:45:11;3.8;83.3
72919;SHT30;68407;55.694;26.994;2024-03-02T18:49:43;3.8;83.3
72919;SHT30;68407;55.694;26.994;2024-03-02T18:55:11;4.1;82.2
72919;SHT30;68407;55.694;26.994;2024-03-02T18:59:51;4.1;82.2
72919;SHT30;68407;55.694;26.994;2024-03-02T19:04:57;4.2;81.7
72919;SHT30;68407;55.694;26.994;2024-03-02T19:10:11;4.1;81.7
72919;SHT30;68407;55.694;26.994;2024-03-02T19:14:31;4.1;81.7
72919;SHT30;68407;55.694;26.994;2024-03-02T19:19:25;4.1;81.6
72919;SHT30;68407;55.694;26.994;2024-03-02T19:24:34;4.2;81.4
72919;SHT30;68407;55.694;26.994;2024-03-02T19:29:27;4.2;81.3
72919;SHT30;68407;55.694;26.994;2024-03-02T19:34:31;4.2;81.3
72919;SHT30;68407;55.694;26.994;2024-03-02T19:39:41;4.1;81.2
72919;SHT30;68407;55.694;26.994;2024-03-02T19:44:26;4.1;81.2
72919;SHT30;68407;55.694;26.994;2024-03-02T19:50:13;4;81.2
72919;SHT30;68407;55.694;26.994;2024-03-02T19:54:59;4;81.2
72919;SHT30;68407;55.694;26.994;2024-03-02T19:59:25;3.9;81.3
72919;SHT30;68407;55.694;26.994;2024-03-02T20:04:25;3.9;81.4
72919;SHT30;68407;55.694;26.994;2024-03-02T20:09:53;3.9;81.4
72919;SHT30;68407;55.694;26.994;2024-03-02T20:15:04;3.8;81.5
72919;SHT30;68407;55.694;26.994;2024-03-02T20:19:25;3.8;81.5
72919;SHT30;68407;55.694;26.994;2024-03-02T20:25:03;3.7;81.7
72919;SHT30;68407;55.694;26.994;2024-03-02T20:29:59;3.7;81.7
72919;SHT30;68407;55.694;26.994;2024-03-02T20:35:13;3.6;81.7
72919;SHT30;68407;55.694;26.994;2024-03-02T20:39:43;3.6;81.7
72919;SHT30;68407;55.694;26.994;2024-03-02T20:44:45;3.6;81.8
72919;SHT30;68407;55.694;26.994;2024-03-02T20:49:31;3.6;81.8
72919;SHT30;68407;55.694;26.994;2024-03-02T20:54:25;3.5;81.8
72919;SHT30;68407;55.694;26.994;2024-03-02T20:59:26;3.5;81.9
72919;SHT30;68407;55.694;26.994;2024-03-02T21:04:25;3.4;82
72919;SHT30;68407;55.694;26.994;2024-03-02T21:09:43;3.4;82
72919;SHT30;68407;55.694;26.994;2024-03-02T21:14:25;3.3;82.1
72919;SHT30;68407;55.694;26.994;2024-03-02T21:19:59;3.3;82.2
72919;SHT30;68407;55.694;26.994;2024-03-02T21:25:13;3.2;82.3
72919;SHT30;68407;55.694;26.994;2024-03-02T21:30:13;3.1;82.5
72919;SHT30;68407;55.694;26.994;2024-03-02T21:34:59;3.1;82.5
72919;SHT30;68407;55.694;26.994;2024-03-02T21:39:53;3.1;82.6
72919;SHT30;68407;55.694;26.994;2024-03-02T21:44:53;3.1;82.5
72919;SHT30;68407;55.694;26.994;2024-03-02T21:50:03;3;82.6
72919;SHT30;68407;55.694;26.994;2024-03-02T21:54:43;3;82.6
72919;SHT30;68407;55.694;26.994;2024-03-02T21:59:53;2.9;82.8
72919;SHT30;68407;55.694;26.994;2024-03-02T22:04:45;2.9;82.8
72919;SHT30;68407;55.694;26.994;2024-03-02T22:10:13;2.8;83
72919;SHT30;68407;55.694;26.994;2024-03-02T22:14:25;2.8;83
72919;SHT30;68407;55.694;26.994;2024-03-02T22:19:55;2.7;83.2
72919;SHT30;68407;55.694;26.994;2024-03-02T22:24:25;2.6;83.4
72919;SHT30;68407;55.694;26.994;2024-03-02T22:29:59;2.5;83.6
72919;SHT30;68407;55.694;26.994;2024-03-02T22:34:31;2.4;83.8
72919;SHT30;68407;55.694;26.994;2024-03-02T22:39:25;2.4;83.7
72919;SHT30;68407;55.694;26.994;2024-03-02T22:44:31;2.3;83.9
72919;SHT30;68407;55.694;26.994;2024-03-02T22:49:31;2.1;84.2
72919;SHT30;68407;55.694;26.994;2024-03-02T22:54:43;2.1;84.5
72919;SHT30;68407;55.694;26.994;2024-03-02T22:59:39;2;84.7
72919;SHT30;68407;55.694;26.994;2024-03-02T23:05:11;2;84.7
72919;SHT30;68407;55.694;26.994;2024-03-02T23:09:31;2;84.7
72919;SHT30;68407;55.694;26.994;2024-03-02T23:15:11;1.8;84.6
72919;SHT30;68407;55.694;26.994;2024-03-02T23:19:57;1.8;84.6
72919;SHT30;68407;55.694;26.994;2024-03-02T23:25:03;1.8;84.7
72919;SHT30;68407;55.694;26.994;2024-03-02T23:29:45;1.8;84.7
72919;SHT30;68407;55.694;26.994;2024-03-02T23:34:51;1.8;84.6
72919;SHT30;68407;55.694;26.994;2024-03-02T23:40:11;1.8;84.6
72919;SHT30;68407;55.694;26.994;2024-03-02T23:45:11;1.7;84.7
72919;SHT30;68407;55.694;26.994;2024-03-02T23:49:49;1.7;84.7
72919;SHT30;68407;55.694;26.994;2024-03-02T23:55:11;1.6;85
